Time;durP1;ratioP1;P1;durP2;ratioP2;P2;SDS_P1;SDS_P2;PMS_P1;PMS_P2;Temp;Humidity;BMP_temperature;BMP_pressure;BME280_temperature;BME280_humidity;BME280_pressure;Samples;Min_cycle;Max_cycle;Signal;HPM_P1;HPM_P2
2024/01/27 00:00:47;;;;;;;0.10;0.10;;;;;;;;;;5083225;28;20106;-75
2024/01/27 00:03:14;;;;;;;0.10;0.10;;;;;;;;;;5085665;28;20074;-75
2024/01/27 00:05:40;;;;;;;0.10;0.10;;;;;;;;;;5089260;28;20114;-75
2024/01/27 00:08:08;;;;;;;0.10;0.10;;;;;;;;;;5089428;28;20052;-76
2024/01/27 00:10:34;;;;;;;0.10;0.10;;;;;;;;;;5080623;28;20048;-75
2024/01/27 00:13:01;;;;;;;0.10;0.10;;;;;;;;;;5086719;28;20094;-74
2024/01/27 00:15:27;;;;;;;0.10;0.10;;;;;;;;;;5089322;28;20123;-75
2024/01/27 00:17:53;;;;;;;0.10;0.10;;;;;;;;;;5089982;28;20056;-75
2024/01/27 00:20:20;;;;;;;0.10;0.10;;;;;;;;;;5068789;28;20519;-75
2024/01/27 00:22:47;;;;;;;0.20;0.20;;;;;;;;;;5083542;28;20502;-75
2024/01/27 00:25:13;;;;;;;0.10;0.10;;;;;;;;;;5088309;28;20056;-75
2024/01/27 00:27:39;;;;;;;0.10;0.10;;;;;;;;;;5076869;28;20060;-75
2024/01/27 00:30:06;;;;;;;0.10;0.10;;;;;;;;;;5086597;28;20052;-75
2024/01/27 00:32:33;;;;;;;0.10;0.10;;;;;;;;;;5086157;28;20048;-75
2024/01/27 00:35:00;;;;;;;0.10;0.10;;;;;;;;;;5083426;28;20053;-75
2024/01/27 00:37:27;;;;;;;0.10;0.10;;;;;;;;;;5064238;28;20057;-75
2024/01/27 00:39:53;;;;;;;0.10;0.10;;;;;;;;;;5085759;28;20123;-75
2024/01/27 00:42:23;;;;;;;0.10;0.10;;;;;;;;;;5082558;28;20517;-75
2024/01/27 00:44:51;;;;;;;0.10;0.10;;;;;;;;;;5065544;28;20534;-75
2024/01/27 00:47:17;;;;;;;0.10;0.10;;;;;;;;;;5064764;28;20055;-75
2024/01/27 00:49:44;;;;;;;0.10;0.10;;;;;;;;;;5085138;28;20056;-75
2024/01/27 00:52:10;;;;;;;0.10;0.10;;;;;;;;;;5066936;28;20140;-75
2024/01/27 00:54:37;;;;;;;0.10;0.10;;;;;;;;;;5085002;28;20099;-75
2024/01/27 00:57:03;;;;;;;0.10;0.10;;;;;;;;;;5082269;28;21005;-75
2024/01/27 00:59:30;;;;;;;0.10;0.10;;;;;;;;;;5064376;28;20052;-75
2024/01/27 01:01:56;;;;;;;0.10;0.10;;;;;;;;;;5088164;28;20524;-75
2024/01/27 01:04:22;;;;;;;0.10;0.10;;;;;;;;;;5079308;28;20048;-75
2024/01/27 01:06:49;;;;;;;0.10;0.10;;;;;;;;;;5085532;28;20118;-75
2024/01/27 01:09:15;;;;;;;0.10;0.10;;;;;;;;;;5084930;28;20139;-75
2024/01/27 01:11:42;;;;;;;0.10;0.10;;;;;;;;;;5086446;28;20123;-75
2024/01/27 01:14:08;;;;;;;0.10;0.10;;;;;;;;;;5081966;28;20053;-75
2024/01/27 01:16:35;;;;;;;0.10;0.10;;;;;;;;;;5088411;28;20064;-76
2024/01/27 01:19:01;;;;;;;0.10;0.10;;;;;;;;;;5082488;28;20127;-75
2024/01/27 01:21:28;;;;;;;0.10;0.10;;;;;;;;;;5084380;28;20049;-75
2024/01/27 01:23:55;;;;;;;0.10;0.10;;;;;;;;;;5087120;28;20053;-76
2024/01/27 01:26:21;;;;;;;0.10;0.10;;;;;;;;;;5082648;28;20119;-75
2024/01/27 01:28:47;;;;;;;0.10;0.10;;;;;;;;;;5084375;28;20053;-75
2024/01/27 01:31:14;;;;;;;0.10;0.10;;;;;;;;;;5084255;28;20055;-75
2024/01/27 01:33:40;;;;;;;0.10;0.10;;;;;;;;;;5086084;28;20053;-75
2024/01/27 01:36:07;;;;;;;0.10;0.10;;;;;;;;;;5076967;28;20045;-75
2024/01/27 01:38:33;;;;;;;0.10;0.10;;;;;;;;;;5084625;28;20051;-75
2024/01/27 01:41:00;;;;;;;0.10;0.10;;;;;;;;;;5083005;28;20525;-75
2024/01/27 01:43:26;;;;;;;0.10;0.10;;;;;;;;;;5079576;28;20144;-75
2024/01/27 01:45:56;;;;;;;0.10;0.10;;;;;;;;;;5087224;28;20155;-75
2024/01/27 01:48:22;;;;;;;0.10;0.10;;;;;;;;;;5088061;28;20592;-75
2024/01/27 01:50:49;;;;;;;0.10;0.10;;;;;;;;;;5080301;28;20049;-75
2024/01/27 01:53:15;;;;;;;0.10;0.10;;;;;;;;;;5075172;28;20060;-76
2024/01/27 01:55:42;;;;;;;0.10;0.10;;;;;;;;;;5072080;28;20053;-75
2024/01/27 01:58:09;;;;;;;0.10;0.10;;;;;;;;;;5091319;28;20121;-75
2024/01/27 02:00:35;;;;;;;0.10;0.10;;;;;;;;;;5091110;28;20064;-75
2024/01/27 02:03:02;;;;;;;0.10;0.10;;;;;;;;;;5073098;28;20048;-76
2024/01/27 02:05:28;;;;;;;0.10;0.10;;;;;;;;;;5074195;28;20511;-75
2024/01/27 02:07:56;;;;;;;0.10;0.10;;;;;;;;;;5082527;28;20055;-75
2024/01/27 02:10:22;;;;;;;0.10;0.10;;;;;;;;;;5064559;28;20055;-76
2024/01/27 02:12:49;;;;;;;0.10;0.10;;;;;;;;;;5086145;28;20060;-75
2024/01/27 02:15:15;;;;;;;0.10;0.10;;;;;;;;;;5088611;28;20095;-75
2024/01/27 02:17:42;;;;;;;0.10;0.10;;;;;;;;;;5082473;28;20041;-75
2024/01/27 02:20:08;;;;;;;0.10;0.10;;;;;;;;;;5090591;28;20055;-75
2024/01/27 02:22:35;;;;;;;0.10;0.10;;;;;;;;;;5089822;28;20053;-75
2024/01/27 02:25:02;;;;;;;0.10;0.10;;;;;;;;;;5091617;28;20076;-75
2024/01/27 02:27:29;;;;;;;0.10;0.10;;;;;;;;;;5090309;28;20059;-75
2024/01/27 02:29:55;;;;;;;0.10;0.10;;;;;;;;;;5089973;28;20514;-75
2024/01/27 02:32:22;;;;;;;0.10;0.10;;;;;;;;;;5087858;28;20506;-75
2024/01/27 02:34:48;;;;;;;0.10;0.10;;;;;;;;;;5088610;28;20144;-76
2024/01/27 02:37:15;;;;;;;0.10;0.10;;;;;;;;;;5083821;28;20053;-76
2024/01/27 02:39:41;;;;;;;0.10;0.10;;;;;;;;;;5088156;28;20491;-76
2024/01/27 02:42:08;;;;;;;0.10;0.10;;;;;;;;;;5089937;28;20118;-75
2024/01/27 02:44:34;;;;;;;0.10;0.10;;;;;;;;;;5089733;28;20056;-75
2024/01/27 02:47:01;;;;;;;0.10;0.10;;;;;;;;;;5089866;28;20568;-76
2024/01/27 02:49:27;;;;;;;0.10;0.10;;;;;;;;;;5089184;28;20061;-76
2024/01/27 02:51:54;;;;;;;0.10;0.10;;;;;;;;;;5090651;28;20601;-76
2024/01/27 02:54:20;;;;;;;0.10;0.10;;;;;;;;;;5088851;28;20048;-76
2024/01/27 02:56:47;;;;;;;0.10;0.10;;;;;;;;;;5088778;28;20131;-76
2024/01/27 02:59:13;;;;;;;0.10;0.10;;;;;;;;;;5088596;28;20617;-75
2024/01/27 03:01:39;;;;;;;0.10;0.10;;;;;;;;;;5087120;28;20533;-76
2024/01/27 03:04:06;;;;;;;0.10;0.10;;;;;;;;;;5088745;28;20048;-75
2024/01/27 03:06:33;;;;;;;0.22;0.22;;;;;;;;;;5086816;28;20107;-75
2024/01/27 03:08:59;;;;;;;0.10;0.10;;;;;;;;;;5083308;28;20087;-75
2024/01/27 03:11:26;;;;;;;0.10;0.10;;;;;;;;;;5088084;28;20052;-76
2024/01/27 03:13:52;;;;;;;0.10;0.10;;;;;;;;;;5088717;28;20053;-75
2024/01/27 03:16:19;;;;;;;0.10;0.10;;;;;;;;;;5091011;28;20499;-75
2024/01/27 03:18:46;;;;;;;0.10;0.10;;;;;;;;;;5081630;28;20604;-75
2024/01/27 03:21:12;;;;;;;0.10;0.10;;;;;;;;;;5080772;28;20060;-75
2024/01/27 03:23:39;;;;;;;12.95;5.28;;;;;;;;;;5060345;28;20057;-75
2024/01/27 03:26:05;;;;;;;0.10;0.10;;;;;;;;;;5063755;28;20059;-75
2024/01/27 03:28:32;;;;;;;0.10;0.10;;;;;;;;;;5089468;28;20057;-75
2024/01/27 03:30:59;;;;;;;0.10;0.10;;;;;;;;;;5068416;28;20210;-75
2024/01/27 03:33:29;;;;;;;0.10;0.10;;;;;;;;;;5064902;28;21637;-75
2024/01/27 03:35:55;;;;;;;0.10;0.10;;;;;;;;;;5075949;28;20045;-75
2024/01/27 03:38:22;;;;;;;0.10;0.10;;;;;;;;;;5086656;28;20599;-75
2024/01/27 03:40:49;;;;;;;0.10;0.10;;;;;;;;;;5086464;28;20052;-75
2024/01/27 03:43:15;;;;;;;0.10;0.10;;;;;;;;;;5082640;28;20056;-75
2024/01/27 03:45:42;;;;;;;0.10;0.10;;;;;;;;;;5084404;28;20059;-75
2024/01/27 03:48:08;;;;;;;0.10;0.10;;;;;;;;;;5083320;28;20060;-75
2024/01/27 03:50:35;;;;;;;0.10;0.10;;;;;;;;;;5087548;28;20860;-75
2024/01/27 03:53:01;;;;;;;0.10;0.10;;;;;;;;;;5071163;28;20052;-75
2024/01/27 03:55:28;;;;;;;0.10;0.10;;;;;;;;;;5081244;28;20053;-75
2024/01/27 03:57:54;;;;;;;0.10;0.10;;;;;;;;;;5079585;28;20063;-75
2024/01/27 04:00:21;;;;;;;0.10;0.10;;;;;;;;;;5089804;28;20057;-75
2024/01/27 04:02:47;;;;;;;0.10;0.10;;;;;;;;;;5088004;28;20056;-75
2024/01/27 04:05:14;;;;;;;0.10;0.10;;;;;;;;;;5084289;28;20110;-75
2024/01/27 04:07:40;;;;;;;0.20;0.20;;;;;;;;;;5087256;28;20065;-75
2024/01/27 04:10:07;;;;;;;0.10;0.10;;;;;;;;;;5078601;28;20403;-75
2024/01/27 04:12:33;;;;;;;0.10;0.10;;;;;;;;;;5094969;28;20155;-75
2024/01/27 04:15:00;;;;;;;0.10;0.10;;;;;;;;;;5084035;28;20064;-76
2024/01/27 04:17:26;;;;;;;0.10;0.10;;;;;;;;;;5079276;28;20055;-75
2024/01/27 04:19:52;;;;;;;0.10;0.10;;;;;;;;;;5069735;28;20849;-75
2024/01/27 04:22:19;;;;;;;0.10;0.10;;;;;;;;;;5088748;28;20056;-75
2024/01/27 04:24:45;;;;;;;1.08;1.08;;;;;;;;;;5083023;28;20106;-75
2024/01/27 04:27:12;;;;;;;0.10;0.10;;;;;;;;;;5085330;28;20110;-75
2024/01/27 04:29:39;;;;;;;0.10;0.10;;;;;;;;;;5062941;28;20433;-75
2024/01/27 04:32:05;;;;;;;0.10;0.10;;;;;;;;;;5085428;28;20137;-75
2024/01/27 04:34:31;;;;;;;0.10;0.10;;;;;;;;;;5083309;28;20117;-75
2024/01/27 04:36:58;;;;;;;0.10;0.10;;;;;;;;;;5081250;28;20049;-75
2024/01/27 04:39:24;;;;;;;0.10;0.10;;;;;;;;;;5076689;28;20053;-75
2024/01/27 04:41:51;;;;;;;0.10;0.10;;;;;;;;;;5068682;28;20626;-75
2024/01/27 04:44:20;;;;;;;0.10;0.10;;;;;;;;;;5081583;28;20052;-75
2024/01/27 04:46:46;;;;;;;0.10;0.10;;;;;;;;;;5086269;28;20052;-75
2024/01/27 04:49:14;;;;;;;0.10;0.10;;;;;;;;;;5089252;28;20049;-75
2024/01/27 04:51:41;;;;;;;0.10;0.10;;;;;;;;;;5077338;28;20060;-75
2024/01/27 04:54:08;;;;;;;0.10;0.10;;;;;;;;;;5087713;28;20048;-75
2024/01/27 04:56:34;;;;;;;0.10;0.10;;;;;;;;;;5080469;28;20139;-75
2024/01/27 04:59:01;;;;;;;0.10;0.10;;;;;;;;;;5078004;28;20899;-75
2024/01/27 05:01:27;;;;;;;0.10;0.10;;;;;;;;;;5076673;28;20528;-76
2024/01/27 05:03:53;;;;;;;0.10;0.10;;;;;;;;;;5083794;28;20056;-75
2024/01/27 05:06:20;;;;;;;0.10;0.10;;;;;;;;;;5086816;28;20147;-75
2024/01/27 05:08:46;;;;;;;0.43;0.43;;;;;;;;;;5075368;28;20074;-76
2024/01/27 05:11:13;;;;;;;0.10;0.10;;;;;;;;;;5087292;28;20090;-76
2024/01/27 05:13:40;;;;;;;0.10;0.10;;;;;;;;;;5081926;28;20056;-76
2024/01/27 05:16:06;;;;;;;0.10;0.10;;;;;;;;;;5075466;28;20053;-75
2024/01/27 05:18:33;;;;;;;0.10;0.10;;;;;;;;;;5083768;28;20049;-75
2024/01/27 05:20:59;;;;;;;0.10;0.10;;;;;;;;;;5080810;28;20068;-75
2024/01/27 05:23:26;;;;;;;0.10;0.10;;;;;;;;;;5070066;28;20139;-75
2024/01/27 05:25:54;;;;;;;0.10;0.10;;;;;;;;;;5085811;28;20147;-75
2024/01/27 05:28:21;;;;;;;0.10;0.10;;;;;;;;;;5081377;28;20060;-75
2024/01/27 05:30:47;;;;;;;0.10;0.10;;;;;;;;;;5078935;28;20555;-75
2024/01/27 05:33:13;;;;;;;0.10;0.10;;;;;;;;;;5077603;28;20052;-76
2024/01/27 05:35:40;;;;;;;0.10;0.10;;;;;;;;;;5091856;28;20066;-75
2024/01/27 05:38:06;;;;;;;3.13;2.78;;;;;;;;;;5086930;28;20084;-75
2024/01/27 05:40:33;;;;;;;0.10;0.10;;;;;;;;;;5084732;28;20590;-76
2024/01/27 05:42:59;;;;;;;0.13;0.13;;;;;;;;;;5086874;28;20516;-76
2024/01/27 05:45:26;;;;;;;0.10;0.10;;;;;;;;;;5081694;28;20600;-75
2024/01/27 05:47:52;;;;;;;0.10;0.10;;;;;;;;;;5072643;28;20862;-75
2024/01/27 05:50:19;;;;;;;0.10;0.10;;;;;;;;;;5090152;28;20052;-75
2024/01/27 05:52:45;;;;;;;0.20;0.20;;;;;;;;;;5088942;28;20052;-75
2024/01/27 05:55:12;;;;;;;0.10;0.10;;;;;;;;;;5090975;28;20048;-75
2024/01/27 05:57:39;;;;;;;0.10;0.10;;;;;;;;;;5084967;28;20426;-75
2024/01/27 06:00:06;;;;;;;0.10;0.10;;;;;;;;;;5083873;28;20063;-75
2024/01/27 06:02:32;;;;;;;0.10;0.10;;;;;;;;;;5088612;28;20053;-77
2024/01/27 06:04:58;;;;;;;0.10;0.10;;;;;;;;;;5091286;28;20525;-75
2024/01/27 06:07:25;;;;;;;1.30;1.30;;;;;;;;;;5090896;28;20049;-75
2024/01/27 06:09:51;;;;;;;0.10;0.10;;;;;;;;;;5086038;28;20056;-75
2024/01/27 06:12:18;;;;;;;0.10;0.10;;;;;;;;;;5082676;28;20545;-75
2024/01/27 06:14:45;;;;;;;0.30;0.30;;;;;;;;;;5088526;28;20048;-75
2024/01/27 06:17:14;;;;;;;0.20;0.20;;;;;;;;;;5089031;28;20522;-75
2024/01/27 06:19:41;;;;;;;0.10;0.10;;;;;;;;;;5062851;28;20143;-75
2024/01/27 06:22:07;;;;;;;0.10;0.10;;;;;;;;;;5060448;28;20137;-75
2024/01/27 06:24:34;;;;;;;0.10;0.10;;;;;;;;;;5079281;28;20499;-75
2024/01/27 06:27:00;;;;;;;0.10;0.10;;;;;;;;;;5089946;28;20056;-75
2024/01/27 06:29:27;;;;;;;0.20;0.20;;;;;;;;;;5088025;28;20131;-75
2024/01/27 06:31:53;;;;;;;0.10;0.10;;;;;;;;;;5090538;28;20060;-75
2024/01/27 06:34:20;;;;;;;0.10;0.10;;;;;;;;;;5085893;28;20146;-75
2024/01/27 06:36:47;;;;;;;0.10;0.10;;;;;;;;;;5078853;28;20052;-76
2024/01/27 06:39:13;;;;;;;0.10;0.10;;;;;;;;;;5089743;28;20525;-75
2024/01/27 06:41:40;;;;;;;0.10;0.10;;;;;;;;;;5084702;28;20508;-75
2024/01/27 06:44:07;;;;;;;0.10;0.10;;;;;;;;;;5090335;28;20052;-75
2024/01/27 06:46:33;;;;;;;0.10;0.10;;;;;;;;;;5084084;28;20435;-75
2024/01/27 06:49:00;;;;;;;0.10;0.10;;;;;;;;;;5083809;28;20053;-75
2024/01/27 06:51:26;;;;;;;0.10;0.10;;;;;;;;;;5089198;28;20147;-75
2024/01/27 06:53:53;;;;;;;0.10;0.10;;;;;;;;;;5084357;28;20048;-75
2024/01/27 06:56:19;;;;;;;0.10;0.10;;;;;;;;;;5085200;28;20056;-75
2024/01/27 06:58:46;;;;;;;0.10;0.10;;;;;;;;;;5082769;28;20140;-75
2024/01/27 07:01:12;;;;;;;0.35;0.35;;;;;;;;;;5085879;28;20136;-75
2024/01/27 07:03:39;;;;;;;0.10;0.10;;;;;;;;;;5081455;28;20056;-76
2024/01/27 07:06:06;;;;;;;0.10;0.10;;;;;;;;;;5088325;28;20522;-75
2024/01/27 07:08:32;;;;;;;0.10;0.10;;;;;;;;;;5065627;28;20576;-75
2024/01/27 07:11:03;;;;;;;;;;;;;;;;;;5055111;28;20111;-75
2024/01/27 07:13:30;;;;;;;0.10;0.10;;;;;;;;;;5081235;28;48309;-75
2024/01/27 07:15:57;;;;;;;0.10;0.10;;;;;;;;;;5064170;28;20052;-75
2024/01/27 07:18:24;;;;;;;0.10;0.10;;;;;;;;;;5077199;28;20057;-75
2024/01/27 07:20:51;;;;;;;0.10;0.10;;;;;;;;;;5085268;28;20144;-78
2024/01/27 07:23:17;;;;;;;0.10;0.10;;;;;;;;;;5077319;28;20652;-75
2024/01/27 07:25:44;;;;;;;0.10;0.10;;;;;;;;;;5084546;28;20139;-75
2024/01/27 07:28:10;;;;;;;0.10;0.10;;;;;;;;;;5083320;28;20126;-75
2024/01/27 07:34:19;;;;;;;0.10;0.10;;;;;;;;;;5061122;28;20060;-75
2024/01/27 07:36:47;;;;;;;0.10;0.10;;;;;;;;;;5087429;28;20487;-76
2024/01/27 07:39:14;;;;;;;0.10;0.10;;;;;;;;;;5061153;28;20053;-75
2024/01/27 07:41:42;;;;;;;0.10;0.10;;;;;;;;;;5081670;28;20048;-75
2024/01/27 07:44:12;;;;;;;0.22;0.22;;;;;;;;;;5078383;28;20582;-75
2024/01/27 07:46:38;;;;;;;0.10;0.10;;;;;;;;;;5078190;28;20609;-76
2024/01/27 07:49:08;;;;;;;0.10;0.10;;;;;;;;;;5086648;28;20056;-75
2024/01/27 07:51:34;;;;;;;0.10;0.10;;;;;;;;;;5086977;28;20130;-75
2024/01/27 07:54:01;;;;;;;0.10;0.10;;;;;;;;;;5086847;28;20609;-76
2024/01/27 07:56:27;;;;;;;0.10;0.10;;;;;;;;;;5080979;28;20058;-75
2024/01/27 07:58:54;;;;;;;0.10;0.10;;;;;;;;;;5086044;28;20056;-75
2024/01/27 08:01:20;;;;;;;0.10;0.10;;;;;;;;;;5081713;28;20531;-75
2024/01/27 08:03:47;;;;;;;0.10;0.10;;;;;;;;;;5082937;28;20056;-75
2024/01/27 08:06:18;;;;;;;0.10;0.10;;;;;;;;;;5081969;28;20052;-75
2024/01/27 08:11:10;;;;;;;0.10;0.10;;;;;;;;;;5201487;22;20178;-79
2024/01/27 08:13:36;;;;;;;0.10;0.10;;;;;;;;;;5135622;27;20086;-79
2024/01/27 08:16:05;;;;;;;0.10;0.10;;;;;;;;;;5137007;27;20139;-79
2024/01/27 08:18:31;;;;;;;0.10;0.10;;;;;;;;;;5152922;27;20051;-79
2024/01/27 08:20:58;;;;;;;0.10;0.10;;;;;;;;;;5140526;27;20051;-78
2024/01/27 08:23:24;;;;;;;0.10;0.10;;;;;;;;;;5155046;27;20096;-78
2024/01/27 08:25:52;;;;;;;0.10;0.10;;;;;;;;;;5139571;27;20157;-79
2024/01/27 08:28:22;;;;;;;0.10;0.10;;;;;;;;;;5132276;27;20088;-79
2024/01/27 08:30:48;;;;;;;0.10;0.10;;;;;;;;;;5158465;27;20952;-79
2024/01/27 08:33:15;;;;;;;0.10;0.10;;;;;;;;;;5135586;27;20102;-79
2024/01/27 08:35:42;;;;;;;0.13;0.13;;;;;;;;;;5153456;27;20051;-79
2024/01/27 08:38:09;;;;;;;0.10;0.10;;;;;;;;;;5152591;27;20051;-79
2024/01/27 08:40:35;;;;;;;0.10;0.10;;;;;;;;;;5151900;27;20035;-78
2024/01/27 08:43:02;;;;;;;0.10;0.10;;;;;;;;;;5135300;27;20051;-78
2024/01/27 08:45:28;;;;;;;0.10;0.10;;;;;;;;;;5131281;27;20105;-80
2024/01/27 08:47:55;;;;;;;0.10;0.10;;;;;;;;;;5143311;27;20054;-79
2024/01/27 08:50:21;;;;;;;0.10;0.10;;;;;;;;;;5141897;27;20051;-79
2024/01/27 08:52:48;;;;;;;0.10;0.10;;;;;;;;;;5149157;27;20081;-79
2024/01/27 08:55:18;;;;;;;0.10;0.10;;;;;;;;;;5141743;27;20042;-79
2024/01/27 08:57:46;;;;;;;0.10;0.10;;;;;;;;;;5133828;27;20052;-79
2024/01/27 09:00:13;;;;;;;0.20;0.20;;;;;;;;;;5149445;27;20054;-79
2024/01/27 09:02:39;;;;;;;0.10;0.10;;;;;;;;;;5158485;27;20047;-79
2024/01/27 09:05:06;;;;;;;0.10;0.10;;;;;;;;;;5140366;27;20100;-79
2024/01/27 09:07:33;;;;;;;1.45;1.38;;;;;;;;;;5136166;27;20051;-79
2024/01/27 09:10:00;;;;;;;0.10;0.10;;;;;;;;;;5144008;27;20051;-79
2024/01/27 09:12:26;;;;;;;0.10;0.10;;;;;;;;;;5157215;27;20054;-79
2024/01/27 09:14:54;;;;;;;0.10;0.10;;;;;;;;;;5140905;27;20051;-79
2024/01/27 09:17:20;;;;;;;1.23;1.23;;;;;;;;;;5138404;27;20040;-79
2024/01/27 09:19:47;;;;;;;0.10;0.10;;;;;;;;;;5134764;27;20040;-79
2024/01/27 09:22:14;;;;;;;0.10;0.10;;;;;;;;;;5140755;27;20055;-79
2024/01/27 09:24:40;;;;;;;0.10;0.10;;;;;;;;;;5144207;27;20062;-79
2024/01/27 09:27:07;;;;;;;0.10;0.10;;;;;;;;;;5143200;27;20039;-79
2024/01/27 09:29:34;;;;;;;2.05;1.65;;;;;;;;;;5151708;27;20669;-78
2024/01/27 09:32:00;;;;;;;0.20;0.20;;;;;;;;;;5145818;27;20055;-79
2024/01/27 09:34:27;;;;;;;0.22;0.22;;;;;;;;;;5157157;27;20048;-78
2024/01/27 09:36:54;;;;;;;0.10;0.10;;;;;;;;;;5137089;27;20059;-79
2024/01/27 09:39:20;;;;;;;0.10;0.10;;;;;;;;;;5145526;27;20055;-78
2024/01/27 09:41:48;;;;;;;0.52;0.52;;;;;;;;;;5150633;27;20577;-78
2024/01/27 09:44:16;;;;;;;0.85;0.85;;;;;;;;;;5142385;27;20047;-78
2024/01/27 09:46:43;;;;;;;0.10;0.10;;;;;;;;;;5155214;27;20027;-79
2024/01/27 09:49:13;;;;;;;0.10;0.10;;;;;;;;;;5137055;27;20062;-78
2024/01/27 09:51:42;;;;;;;0.10;0.10;;;;;;;;;;5136924;27;20090;-78
2024/01/27 09:54:09;;;;;;;0.10;0.10;;;;;;;;;;5134780;27;20053;-78
2024/01/27 09:56:35;;;;;;;0.10;0.10;;;;;;;;;;5126774;27;20430;-78
2024/01/27 09:59:03;;;;;;;0.10;0.10;;;;;;;;;;5142235;27;20528;-78
2024/01/27 10:01:31;;;;;;;0.98;0.47;;;;;;;;;;5141206;27;20070;-78
2024/01/27 10:03:58;;;;;;;0.20;0.20;;;;;;;;;;5125312;27;20052;-78
2024/01/27 10:06:25;;;;;;;0.10;0.10;;;;;;;;;;5128352;27;20055;-78
2024/01/27 10:08:53;;;;;;;0.10;0.10;;;;;;;;;;5137075;27;20055;-78
2024/01/27 10:11:20;;;;;;;0.10;0.10;;;;;;;;;;5128318;27;20058;-78
2024/01/27 10:13:59;;;;;;;0.20;0.20;;;;;;;;;;5125205;27;20136;-79
2024/01/27 10:16:27;;;;;;;0.10;0.10;;;;;;;;;;5131672;27;20051;-78
2024/01/27 10:19:01;;;;;;;0.10;0.10;;;;;;;;;;5139005;27;20062;-78
2024/01/27 10:21:27;;;;;;;0.10;0.10;;;;;;;;;;5149273;27;20051;-79
2024/01/27 10:23:54;;;;;;;0.10;0.10;;;;;;;;;;5136016;27;20497;-78
2024/01/27 10:26:20;;;;;;;0.10;0.10;;;;;;;;;;5156449;27;20051;-78
2024/01/27 10:28:56;;;;;;;0.10;0.10;;;;;;;;;;5157716;27;20141;-78
2024/01/27 10:31:28;;;;;;;0.10;0.10;;;;;;;;;;5140369;27;20112;-78
2024/01/27 10:33:59;;;;;;;0.47;0.47;;;;;;;;;;5158144;27;20043;-78
2024/01/27 10:36:26;;;;;;;0.10;0.10;;;;;;;;;;5161009;27;20547;-78
2024/01/27 10:38:55;;;;;;;0.10;0.10;;;;;;;;;;5139950;27;20051;-78
2024/01/27 10:41:27;;;;;;;0.13;0.13;;;;;;;;;;5162127;27;20051;-78
2024/01/27 10:43:58;;;;;;;0.10;0.10;;;;;;;;;;5157920;27;20036;-78
2024/01/27 10:46:25;;;;;;;0.22;0.22;;;;;;;;;;5153864;27;20051;-78
2024/01/27 10:48:52;;;;;;;0.25;0.25;;;;;;;;;;5137589;27;20085;-78
2024/01/27 10:51:27;;;;;;;0.10;0.10;;;;;;;;;;5139280;27;20049;-78
2024/01/27 10:54:00;;;;;;;0.30;0.30;;;;;;;;;;5140082;27;20040;-78
2024/01/27 10:56:30;;;;;;;0.88;0.73;;;;;;;;;;5135904;27;20500;-78
2024/01/27 10:58:57;;;;;;;0.77;0.77;;;;;;;;;;5135931;27;20047;-78
2024/01/27 11:01:24;;;;;;;0.13;0.13;;;;;;;;;;5137266;27;20035;-78
2024/01/27 11:03:52;;;;;;;0.25;0.25;;;;;;;;;;5126799;27;20113;-77
2024/01/27 11:06:19;;;;;;;0.85;0.77;;;;;;;;;;5142603;27;20189;-77
2024/01/27 11:08:45;;;;;;;1.08;0.70;;;;;;;;;;5125093;27;20050;-78
2024/01/27 11:11:12;;;;;;;0.10;0.10;;;;;;;;;;5141327;27;20077;-77
2024/01/27 11:13:39;;;;;;;0.10;0.10;;;;;;;;;;5142011;27;20529;-78
2024/01/27 11:16:06;;;;;;;0.25;0.25;;;;;;;;;;5133462;27;20082;-78
2024/01/27 11:18:32;;;;;;;0.75;0.75;;;;;;;;;;5136922;27;20059;-78
2024/01/27 11:20:59;;;;;;;0.10;0.10;;;;;;;;;;5139877;27;20131;-79
2024/01/27 11:23:33;;;;;;;0.65;0.43;;;;;;;;;;5159306;27;20134;-79
2024/01/27 11:26:06;;;;;;;0.50;0.25;;;;;;;;;;5136263;27;20077;-79
2024/01/27 11:28:33;;;;;;;0.10;0.10;;;;;;;;;;5129121;27;20056;-79
2024/01/27 11:31:03;;;;;;;0.20;0.20;;;;;;;;;;5156663;27;20047;-79
2024/01/27 11:33:30;;;;;;;0.10;0.10;;;;;;;;;;5139167;27;20055;-78
2024/01/27 11:36:00;;;;;;;0.10;0.10;;;;;;;;;;5162191;27;20497;-79
2024/01/27 11:38:29;;;;;;;0.30;0.30;;;;;;;;;;5144518;27;20111;-79
2024/01/27 11:40:55;;;;;;;0.40;0.40;;;;;;;;;;5142329;27;20036;-79
2024/01/27 11:43:22;;;;;;;0.10;0.10;;;;;;;;;;5143091;27;20048;-78
2024/01/27 11:45:59;;;;;;;0.10;0.10;;;;;;;;;;5161045;27;20080;-78
2024/01/27 11:48:25;;;;;;;0.20;0.20;;;;;;;;;;5142373;27;20884;-78
2024/01/27 11:51:10;;;;;;;0.13;0.13;;;;;;;;;;5138958;27;20962;-78
2024/01/27 11:53:36;;;;;;;2.75;2.05;;;;;;;;;;5143572;27;20039;-78
2024/01/27 11:56:04;;;;;;;0.10;0.10;;;;;;;;;;5142912;27;20059;-79
2024/01/27 11:58:31;;;;;;;0.52;0.52;;;;;;;;;;5141215;27;20054;-79
2024/01/27 12:01:00;;;;;;;0.35;0.35;;;;;;;;;;5130892;27;20062;-79
2024/01/27 12:03:30;;;;;;;1.30;0.82;;;;;;;;;;5130406;27;20047;-79
2024/01/27 12:05:57;;;;;;;0.10;0.10;;;;;;;;;;5131054;27;20046;-78
2024/01/27 12:08:24;;;;;;;0.10;0.10;;;;;;;;;;5131237;27;20082;-78
2024/01/27 12:10:51;;;;;;;0.40;0.40;;;;;;;;;;5144383;27;20036;-77
2024/01/27 12:13:17;;;;;;;0.20;0.20;;;;;;;;;;5131439;27;20161;-77
2024/01/27 12:15:44;;;;;;;0.10;0.10;;;;;;;;;;5131655;27;20142;-77
2024/01/27 12:18:12;;;;;;;0.10;0.10;;;;;;;;;;5128555;27;20513;-77
2024/01/27 12:20:38;;;;;;;0.10;0.10;;;;;;;;;;5126894;27;20078;-77
2024/01/27 12:23:05;;;;;;;0.10;0.10;;;;;;;;;;5130616;27;20504;-77
2024/01/27 12:25:32;;;;;;;0.98;0.98;;;;;;;;;;5146694;27;20066;-77
2024/01/27 12:28:02;;;;;;;0.10;0.10;;;;;;;;;;5147185;27;20100;-77
2024/01/27 12:30:29;;;;;;;0.10;0.10;;;;;;;;;;5153248;27;20146;-77
2024/01/27 12:32:55;;;;;;;0.10;0.10;;;;;;;;;;5131746;27;21106;-77
2024/01/27 12:35:23;;;;;;;0.10;0.10;;;;;;;;;;5150377;27;20062;-77
2024/01/27 12:37:50;;;;;;;0.20;0.20;;;;;;;;;;5133513;27;20058;-77
2024/01/27 12:40:17;;;;;;;0.10;0.10;;;;;;;;;;5130901;27;20067;-77
2024/01/27 12:42:48;;;;;;;0.10;0.10;;;;;;;;;;5149797;27;20046;-77
2024/01/27 12:45:15;;;;;;;0.10;0.10;;;;;;;;;;5134521;27;20051;-77
2024/01/27 12:47:41;;;;;;;0.10;0.10;;;;;;;;;;5134101;27;20051;-77
2024/01/27 12:50:08;;;;;;;0.20;0.20;;;;;;;;;;5151627;27;20092;-78
2024/01/27 12:52:36;;;;;;;0.20;0.20;;;;;;;;;;5152283;27;20047;-77
2024/01/27 12:55:04;;;;;;;0.10;0.10;;;;;;;;;;5136101;27;20777;-77
2024/01/27 12:57:30;;;;;;;0.20;0.20;;;;;;;;;;5137339;27;20058;-77
2024/01/27 12:59:57;;;;;;;0.20;0.20;;;;;;;;;;5137603;27;20127;-77
2024/01/27 13:02:23;;;;;;;0.88;0.45;;;;;;;;;;5137321;27;20059;-77
2024/01/27 13:04:50;;;;;;;0.40;0.40;;;;;;;;;;5137765;27;20062;-78
2024/01/27 13:07:16;;;;;;;0.10;0.10;;;;;;;;;;5156446;27;20130;-77
2024/01/27 13:09:43;;;;;;;0.10;0.10;;;;;;;;;;5154919;27;20088;-78
2024/01/27 13:12:09;;;;;;;0.10;0.10;;;;;;;;;;5133538;27;20054;-78
2024/01/27 13:14:36;;;;;;;0.20;0.20;;;;;;;;;;5136570;27;20051;-78
2024/01/27 13:17:03;;;;;;;0.20;0.20;;;;;;;;;;5135810;27;20051;-78
2024/01/27 13:19:30;;;;;;;0.57;0.57;;;;;;;;;;5155486;27;20051;-78
2024/01/27 13:21:57;;;;;;;0.10;0.10;;;;;;;;;;5138739;27;20055;-78
2024/01/27 13:24:25;;;;;;;0.00;0.00;;;;;;;;;;5155016;27;20051;-77
2024/01/27 13:26:51;;;;;;;0.45;0.45;;;;;;;;;;5153328;27;20058;-78
2024/01/27 13:29:18;;;;;;;0.10;0.10;;;;;;;;;;5135820;27;20059;-77
2024/01/27 13:31:45;;;;;;;0.25;0.25;;;;;;;;;;5153066;27;20059;-78
2024/01/27 13:34:11;;;;;;;0.10;0.10;;;;;;;;;;5134246;27;20043;-78
2024/01/27 13:36:38;;;;;;;0.10;0.10;;;;;;;;;;5151640;27;20512;-78
2024/01/27 13:39:04;;;;;;;0.10;0.10;;;;;;;;;;5133747;27;20075;-78
2024/01/27 13:41:31;;;;;;;0.15;0.15;;;;;;;;;;5151240;27;20054;-78
2024/01/27 13:43:57;;;;;;;0.10;0.10;;;;;;;;;;5149660;27;20047;-77
2024/01/27 13:46:24;;;;;;;0.10;0.10;;;;;;;;;;5151330;27;20050;-78
2024/01/27 13:48:51;;;;;;;0.20;0.20;;;;;;;;;;5149911;27;20047;-77
2024/01/27 13:51:18;;;;;;;0.35;0.35;;;;;;;;;;5134040;27;20497;-77
2024/01/27 13:53:45;;;;;;;0.20;0.20;;;;;;;;;;5132331;27;20056;-78
2024/01/27 13:56:13;;;;;;;0.60;0.57;;;;;;;;;;5132659;27;20051;-77
2024/01/27 13:58:41;;;;;;;0.63;0.38;;;;;;;;;;5154691;27;20051;-77
2024/01/27 14:01:08;;;;;;;0.10;0.10;;;;;;;;;;5137644;27;22177;-78
2024/01/27 14:03:36;;;;;;;0.10;0.10;;;;;;;;;;5151111;27;20073;-79
2024/01/27 14:06:04;;;;;;;0.10;0.10;;;;;;;;;;5138521;27;20070;-78
2024/01/27 14:08:30;;;;;;;0.50;0.50;;;;;;;;;;5138777;27;20334;-78
2024/01/27 14:10:57;;;;;;;0.10;0.10;;;;;;;;;;5136081;27;20119;-78
2024/01/27 14:13:23;;;;;;;0.10;0.10;;;;;;;;;;5157765;27;20047;-78
2024/01/27 14:15:50;;;;;;;1.13;1.02;;;;;;;;;;5153861;27;20101;-78
2024/01/27 14:18:20;;;;;;;0.10;0.10;;;;;;;;;;5134654;27;20082;-78
2024/01/27 14:20:48;;;;;;;0.30;0.30;;;;;;;;;;5136389;27;20140;-78
2024/01/27 14:23:15;;;;;;;0.10;0.10;;;;;;;;;;5136569;27;20184;-78
2024/01/27 14:25:42;;;;;;;0.10;0.10;;;;;;;;;;5129451;27;20042;-78
2024/01/27 14:28:13;;;;;;;0.10;0.10;;;;;;;;;;5135460;27;20046;-78
2024/01/27 14:30:40;;;;;;;0.10;0.10;;;;;;;;;;5161074;27;20054;-78
2024/01/27 14:33:07;;;;;;;0.10;0.10;;;;;;;;;;5148833;27;20065;-78
2024/01/27 14:35:36;;;;;;;0.10;0.10;;;;;;;;;;5149076;27;20039;-78
2024/01/27 14:38:04;;;;;;;0.10;0.10;;;;;;;;;;5156732;27;20897;-78
2024/01/27 14:40:32;;;;;;;0.10;0.10;;;;;;;;;;5143274;27;20050;-78
2024/01/27 14:43:08;;;;;;;;;;;;;;;;;;5145301;27;20047;-78
2024/01/27 14:45:35;;;;;;;0.10;0.10;;;;;;;;;;5136241;27;44773;-78
2024/01/27 14:48:02;;;;;;;0.10;0.10;;;;;;;;;;5135158;27;20051;-78